sensor_id;sensor_type;location;lat;lon;timestamp;P1;durP1;ratioP1;P2;durP2;ratioP2
27794;SDS011;15176;50.844;4.412;2023-04-21T00:00:13;15.65;;;10.13;;
27794;SDS011;15176;50.844;4.412;2023-04-21T00:02:39;14.85;;;10.07;;
27794;SDS011;15176;50.844;4.412;2023-04-21T00:05:05;15.48;;;10.40;;
27794;SDS011;15176;50.844;4.412;2023-04-21T00:07:36;15.23;;;10.27;;
27794;SDS011;15176;50.844;4.412;2023-04-21T00:10:04;14.57;;;8.55;;
27794;SDS011;15176;50.844;4.412;2023-04-21T00:12:33;13.90;;;9.70;;
27794;SDS011;15176;50.844;4.412;2023-04-21T00:14:59;16.35;;;10.63;;
27794;SDS011;15176;50.844;4.412;2023-04-21T00:17:25;12.15;;;7.97;;
27794;SDS011;15176;50.844;4.412;2023-04-21T00:19:51;13.70;;;10.27;;
27794;SDS011;15176;50.844;4.412;2023-04-21T00:22:17;15.93;;;10.25;;
27794;SDS011;15176;50.844;4.412;2023-04-21T00:24:43;14.52;;;9.73;;
27794;SDS011;15176;50.844;4.412;2023-04-21T00:27:09;16.67;;;10.57;;
27794;SDS011;15176;50.844;4.412;2023-04-21T00:29:36;14.93;;;10.25;;
27794;SDS011;15176;50.844;4.412;2023-04-21T00:32:02;11.85;;;7.90;;
27794;SDS011;15176;50.844;4.412;2023-04-21T00:34:32;12.70;;;9.00;;
27794;SDS011;15176;50.844;4.412;2023-04-21T00:36:58;14.70;;;10.15;;
27794;SDS011;15176;50.844;4.412;2023-04-21T00:39:23;11.68;;;7.82;;
27794;SDS011;15176;50.844;4.412;2023-04-21T00:41:49;13.82;;;9.32;;
27794;SDS011;15176;50.844;4.412;2023-04-21T00:44:15;15.68;;;9.82;;
27794;SDS011;15176;50.844;4.412;2023-04-21T00:46:41;15.30;;;10.25;;
27794;SDS011;15176;50.844;4.412;2023-04-21T00:49:08;16.70;;;11.27;;
27794;SDS011;15176;50.844;4.412;2023-04-21T00:51:36;11.57;;;8.85;;
27794;SDS011;15176;50.844;4.412;2023-04-21T00:54:03;11.48;;;7.72;;
27794;SDS011;15176;50.844;4.412;2023-04-21T00:56:30;15.35;;;10.20;;
27794;SDS011;15176;50.844;4.412;2023-04-21T00:58:57;15.15;;;11.00;;
27794;SDS011;15176;50.844;4.412;2023-04-21T01:01:24;18.05;;;11.73;;
27794;SDS011;15176;50.844;4.412;2023-04-21T01:03:51;17.23;;;11.70;;
27794;SDS011;15176;50.844;4.412;2023-04-21T01:06:17;15.15;;;11.52;;
27794;SDS011;15176;50.844;4.412;2023-04-21T01:08:46;16.33;;;11.05;;
27794;SDS011;15176;50.844;4.412;2023-04-21T01:11:12;15.75;;;10.80;;
27794;SDS011;15176;50.844;4.412;2023-04-21T01:13:38;17.17;;;12.10;;
27794;SDS011;15176;50.844;4.412;2023-04-21T01:16:05;16.83;;;10.98;;
27794;SDS011;15176;50.844;4.412;2023-04-21T01:18:34;14.07;;;10.05;;
27794;SDS011;15176;50.844;4.412;2023-04-21T01:21:01;18.52;;;12.25;;
27794;SDS011;15176;50.844;4.412;2023-04-21T01:23:28;13.45;;;9.90;;
27794;SDS011;15176;50.844;4.412;2023-04-21T01:25:53;17.50;;;11.73;;
27794;SDS011;15176;50.844;4.412;2023-04-21T01:28:23;14.60;;;10.43;;
27794;SDS011;15176;50.844;4.412;2023-04-21T01:30:50;17.73;;;12.52;;
27794;SDS011;15176;50.844;4.412;2023-04-21T01:33:16;14.07;;;10.10;;
27794;SDS011;15176;50.844;4.412;2023-04-21T01:35:43;15.88;;;11.32;;
27794;SDS011;15176;50.844;4.412;2023-04-21T01:38:09;18.70;;;13.95;;
27794;SDS011;15176;50.844;4.412;2023-04-21T01:40:35;19.25;;;14.43;;
27794;SDS011;15176;50.844;4.412;2023-04-21T01:43:02;16.33;;;12.02;;
27794;SDS011;15176;50.844;4.412;2023-04-21T01:45:28;20.42;;;13.43;;
27794;SDS011;15176;50.844;4.412;2023-04-21T01:47:54;16.50;;;11.45;;
27794;SDS011;15176;50.844;4.412;2023-04-21T01:50:20;18.45;;;13.50;;
27794;SDS011;15176;50.844;4.412;2023-04-21T01:52:46;20.77;;;14.10;;
27794;SDS011;15176;50.844;4.412;2023-04-21T01:55:13;19.75;;;14.32;;
27794;SDS011;15176;50.844;4.412;2023-04-21T01:57:39;20.77;;;15.00;;
27794;SDS011;15176;50.844;4.412;2023-04-21T02:00:05;25.52;;;17.88;;
27794;SDS011;15176;50.844;4.412;2023-04-21T02:02:33;24.98;;;17.38;;
27794;SDS011;15176;50.844;4.412;2023-04-21T02:04:59;24.58;;;18.63;;
27794;SDS011;15176;50.844;4.412;2023-04-21T02:07:24;21.25;;;15.30;;
27794;SDS011;15176;50.844;4.412;2023-04-21T02:09:50;25.48;;;18.85;;
27794;SDS011;15176;50.844;4.412;2023-04-21T02:12:15;28.60;;;20.05;;
27794;SDS011;15176;50.844;4.412;2023-04-21T02:14:41;29.17;;;20.23;;
27794;SDS011;15176;50.844;4.412;2023-04-21T02:17:07;28.23;;;20.05;;
27794;SDS011;15176;50.844;4.412;2023-04-21T02:19:33;27.75;;;20.40;;
27794;SDS011;15176;50.844;4.412;2023-04-21T02:21:58;23.25;;;16.58;;
27794;SDS011;15176;50.844;4.412;2023-04-21T02:24:24;29.67;;;20.25;;
27794;SDS011;15176;50.844;4.412;2023-04-21T02:26:50;28.10;;;20.25;;
27794;SDS011;15176;50.844;4.412;2023-04-21T02:29:15;22.02;;;15.60;;
27794;SDS011;15176;50.844;4.412;2023-04-21T02:31:41;22.30;;;16.80;;
27794;SDS011;15176;50.844;4.412;2023-04-21T02:34:07;32.15;;;21.42;;
27794;SDS011;15176;50.844;4.412;2023-04-21T02:36:32;30.98;;;22.38;;
27794;SDS011;15176;50.844;4.412;2023-04-21T02:38:58;24.42;;;18.33;;
27794;SDS011;15176;50.844;4.412;2023-04-21T02:41:24;29.83;;;21.98;;
27794;SDS011;15176;50.844;4.412;2023-04-21T02:43:50;30.52;;;21.98;;
27794;SDS011;15176;50.844;4.412;2023-04-21T02:46:15;30.05;;;22.23;;
27794;SDS011;15176;50.844;4.412;2023-04-21T02:48:41;31.38;;;23.30;;
27794;SDS011;15176;50.844;4.412;2023-04-21T02:51:10;32.60;;;22.90;;
27794;SDS011;15176;50.844;4.412;2023-04-21T02:53:37;24.50;;;17.65;;
27794;SDS011;15176;50.844;4.412;2023-04-21T02:56:04;28.25;;;20.48;;
27794;SDS011;15176;50.844;4.412;2023-04-21T02:58:31;27.20;;;20.27;;
27794;SDS011;15176;50.844;4.412;2023-04-21T03:00:56;29.85;;;22.52;;
27794;SDS011;15176;50.844;4.412;2023-04-21T03:03:22;30.98;;;23.02;;
27794;SDS011;15176;50.844;4.412;2023-04-21T03:05:48;32.35;;;23.35;;
27794;SDS011;15176;50.844;4.412;2023-04-21T03:08:13;29.65;;;21.42;;
27794;SDS011;15176;50.844;4.412;2023-04-21T03:10:39;31.00;;;22.90;;
27794;SDS011;15176;50.844;4.412;2023-04-21T03:13:05;33.05;;;23.75;;
27794;SDS011;15176;50.844;4.412;2023-04-21T03:15:31;29.60;;;21.95;;
27794;SDS011;15176;50.844;4.412;2023-04-21T03:17:59;33.38;;;24.73;;
27794;SDS011;15176;50.844;4.412;2023-04-21T03:20:25;36.55;;;25.75;;
27794;SDS011;15176;50.844;4.412;2023-04-21T03:22:52;35.45;;;24.88;;
27794;SDS011;15176;50.844;4.412;2023-04-21T03:25:18;33.60;;;24.65;;
27794;SDS011;15176;50.844;4.412;2023-04-21T03:27:43;28.52;;;20.00;;
27794;SDS011;15176;50.844;4.412;2023-04-21T03:30:09;33.50;;;24.05;;
27794;SDS011;15176;50.844;4.412;2023-04-21T03:32:35;30.85;;;22.40;;
27794;SDS011;15176;50.844;4.412;2023-04-21T03:35:01;32.10;;;24.13;;
27794;SDS011;15176;50.844;4.412;2023-04-21T03:37:27;35.55;;;25.52;;
27794;SDS011;15176;50.844;4.412;2023-04-21T03:39:53;25.92;;;18.70;;
27794;SDS011;15176;50.844;4.412;2023-04-21T03:42:18;31.77;;;23.42;;
27794;SDS011;15176;50.844;4.412;2023-04-21T03:44:44;35.88;;;24.92;;
27794;SDS011;15176;50.844;4.412;2023-04-21T03:47:10;28.40;;;20.55;;
27794;SDS011;15176;50.844;4.412;2023-04-21T03:49:35;36.55;;;24.73;;
27794;SDS011;15176;50.844;4.412;2023-04-21T03:52:01;32.08;;;20.85;;
27794;SDS011;15176;50.844;4.412;2023-04-21T03:54:27;31.25;;;22.88;;
27794;SDS011;15176;50.844;4.412;2023-04-21T03:56:52;36.08;;;25.88;;
27794;SDS011;15176;50.844;4.412;2023-04-21T03:59:18;36.90;;;25.33;;
27794;SDS011;15176;50.844;4.412;2023-04-21T04:01:44;36.75;;;25.73;;
27794;SDS011;15176;50.844;4.412;2023-04-21T04:04:10;33.85;;;24.13;;
27794;SDS011;15176;50.844;4.412;2023-04-21T04:06:35;34.00;;;24.48;;
27794;SDS011;15176;50.844;4.412;2023-04-21T04:09:01;34.67;;;24.63;;
27794;SDS011;15176;50.844;4.412;2023-04-21T04:11:28;32.47;;;22.17;;
27794;SDS011;15176;50.844;4.412;2023-04-21T04:13:55;30.63;;;21.60;;
27794;SDS011;15176;50.844;4.412;2023-04-21T04:16:21;38.45;;;24.75;;
27794;SDS011;15176;50.844;4.412;2023-04-21T04:18:48;34.25;;;24.38;;
27794;SDS011;15176;50.844;4.412;2023-04-21T04:21:14;27.48;;;20.05;;
27794;SDS011;15176;50.844;4.412;2023-04-21T04:23:40;23.17;;;17.63;;
27794;SDS011;15176;50.844;4.412;2023-04-21T04:26:06;35.40;;;25.90;;
27794;SDS011;15176;50.844;4.412;2023-04-21T04:28:32;33.88;;;25.23;;
27794;SDS011;15176;50.844;4.412;2023-04-21T04:30:59;31.58;;;22.48;;
27794;SDS011;15176;50.844;4.412;2023-04-21T04:33:25;30.95;;;21.45;;
27794;SDS011;15176;50.844;4.412;2023-04-21T04:35:50;33.65;;;24.67;;
27794;SDS011;15176;50.844;4.412;2023-04-21T04:38:16;33.10;;;24.73;;
27794;SDS011;15176;50.844;4.412;2023-04-21T04:40:42;35.60;;;25.10;;
27794;SDS011;15176;50.844;4.412;2023-04-21T04:43:08;35.88;;;24.45;;
27794;SDS011;15176;50.844;4.412;2023-04-21T04:45:34;25.63;;;19.13;;
27794;SDS011;15176;50.844;4.412;2023-04-21T04:48:01;31.85;;;23.60;;
27794;SDS011;15176;50.844;4.412;2023-04-21T04:50:28;23.88;;;17.35;;
27794;SDS011;15176;50.844;4.412;2023-04-21T04:52:54;32.33;;;22.85;;
27794;SDS011;15176;50.844;4.412;2023-04-21T04:55:21;32.60;;;23.33;;
27794;SDS011;15176;50.844;4.412;2023-04-21T04:57:47;25.33;;;18.85;;
27794;SDS011;15176;50.844;4.412;2023-04-21T05:00:13;30.60;;;22.52;;
27794;SDS011;15176;50.844;4.412;2023-04-21T05:02:39;31.52;;;22.65;;
27794;SDS011;15176;50.844;4.412;2023-04-21T05:05:08;30.05;;;20.42;;
27794;SDS011;15176;50.844;4.412;2023-04-21T05:07:34;28.45;;;20.67;;
27794;SDS011;15176;50.844;4.412;2023-04-21T05:09:59;31.45;;;22.92;;
27794;SDS011;15176;50.844;4.412;2023-04-21T05:12:26;28.33;;;19.98;;
27794;SDS011;15176;50.844;4.412;2023-04-21T05:14:52;28.08;;;19.60;;
27794;SDS011;15176;50.844;4.412;2023-04-21T05:17:17;25.55;;;17.35;;
27794;SDS011;15176;50.844;4.412;2023-04-21T05:19:43;29.83;;;21.10;;
27794;SDS011;15176;50.844;4.412;2023-04-21T05:22:08;32.20;;;22.45;;
27794;SDS011;15176;50.844;4.412;2023-04-21T05:24:34;31.27;;;21.88;;
27794;SDS011;15176;50.844;4.412;2023-04-21T05:27:00;28.23;;;18.25;;
27794;SDS011;15176;50.844;4.412;2023-04-21T05:29:30;24.40;;;17.65;;
27794;SDS011;15176;50.844;4.412;2023-04-21T05:31:58;31.08;;;21.13;;
27794;SDS011;15176;50.844;4.412;2023-04-21T05:34:24;27.38;;;20.20;;
27794;SDS011;15176;50.844;4.412;2023-04-21T05:36:49;30.80;;;20.77;;
27794;SDS011;15176;50.844;4.412;2023-04-21T05:39:17;29.60;;;20.20;;
27794;SDS011;15176;50.844;4.412;2023-04-21T05:41:43;24.80;;;18.15;;
27794;SDS011;15176;50.844;4.412;2023-04-21T05:44:09;27.17;;;18.58;;
27794;SDS011;15176;50.844;4.412;2023-04-21T05:46:34;30.88;;;19.88;;
27794;SDS011;15176;50.844;4.412;2023-04-21T05:49:00;26.85;;;19.15;;
27794;SDS011;15176;50.844;4.412;2023-04-21T05:51:28;28.75;;;20.00;;
27794;SDS011;15176;50.844;4.412;2023-04-21T05:53:56;30.08;;;20.67;;
27794;SDS011;15176;50.844;4.412;2023-04-21T05:56:25;27.80;;;19.75;;
27794;SDS011;15176;50.844;4.412;2023-04-21T05:58:53;19.52;;;14.15;;
27794;SDS011;15176;50.844;4.412;2023-04-21T06:01:20;22.67;;;13.95;;
27794;SDS011;15176;50.844;4.412;2023-04-21T06:03:46;27.50;;;19.27;;
27794;SDS011;15176;50.844;4.412;2023-04-21T06:06:14;25.13;;;17.30;;
27794;SDS011;15176;50.844;4.412;2023-04-21T06:08:45;21.38;;;14.25;;
27794;SDS011;15176;50.844;4.412;2023-04-21T06:11:11;23.98;;;14.43;;
27794;SDS011;15176;50.844;4.412;2023-04-21T06:13:38;23.80;;;17.23;;
27794;SDS011;15176;50.844;4.412;2023-04-21T06:16:04;22.02;;;16.48;;
27794;SDS011;15176;50.844;4.412;2023-04-21T06:18:30;25.27;;;18.05;;
27794;SDS011;15176;50.844;4.412;2023-04-21T06:20:56;25.45;;;18.40;;
27794;SDS011;15176;50.844;4.412;2023-04-21T06:23:22;25.13;;;18.52;;
27794;SDS011;15176;50.844;4.412;2023-04-21T06:26:00;25.48;;;18.10;;
27794;SDS011;15176;50.844;4.412;2023-04-21T06:28:31;21.33;;;15.25;;
27794;SDS011;15176;50.844;4.412;2023-04-21T06:31:01;27.48;;;17.58;;
27794;SDS011;15176;50.844;4.412;2023-04-21T06:33:28;25.67;;;17.58;;
27794;SDS011;15176;50.844;4.412;2023-04-21T06:35:54;26.67;;;18.30;;
27794;SDS011;15176;50.844;4.412;2023-04-21T06:38:20;24.50;;;17.02;;
27794;SDS011;15176;50.844;4.412;2023-04-21T06:40:46;23.85;;;17.40;;
27794;SDS011;15176;50.844;4.412;2023-04-21T06:43:12;21.70;;;14.85;;
27794;SDS011;15176;50.844;4.412;2023-04-21T06:45:38;24.23;;;16.40;;
27794;SDS011;15176;50.844;4.412;2023-04-21T06:48:06;22.67;;;16.50;;
27794;SDS011;15176;50.844;4.412;2023-04-21T06:50:34;23.05;;;14.80;;
27794;SDS011;15176;50.844;4.412;2023-04-21T06:53:00;20.38;;;13.25;;
27794;SDS011;15176;50.844;4.412;2023-04-21T06:55:26;20.42;;;14.25;;
27794;SDS011;15176;50.844;4.412;2023-04-21T06:57:52;20.98;;;14.73;;
27794;SDS011;15176;50.844;4.412;2023-04-21T07:00:17;23.85;;;15.40;;
27794;SDS011;15176;50.844;4.412;2023-04-21T07:02:43;15.95;;;11.30;;
27794;SDS011;15176;50.844;4.412;2023-04-21T07:05:09;21.65;;;14.48;;
27794;SDS011;15176;50.844;4.412;2023-04-21T07:07:38;19.65;;;14.35;;
27794;SDS011;15176;50.844;4.412;2023-04-21T07:10:04;19.75;;;13.95;;
27794;SDS011;15176;50.844;4.412;2023-04-21T07:12:31;21.80;;;14.98;;
27794;SDS011;15176;50.844;4.412;2023-04-21T07:14:56;18.50;;;14.02;;
27794;SDS011;15176;50.844;4.412;2023-04-21T07:17:22;16.38;;;12.05;;
27794;SDS011;15176;50.844;4.412;2023-04-21T07:19:48;19.20;;;13.80;;
27794;SDS011;15176;50.844;4.412;2023-04-21T07:22:17;18.55;;;13.65;;
27794;SDS011;15176;50.844;4.412;2023-04-21T07:24:42;18.88;;;13.10;;
27794;SDS011;15176;50.844;4.412;2023-04-21T07:27:09;17.67;;;13.25;;
27794;SDS011;15176;50.844;4.412;2023-04-21T07:29:35;18.27;;;13.73;;
27794;SDS011;15176;50.844;4.412;2023-04-21T07:32:01;18.45;;;13.57;;
27794;SDS011;15176;50.844;4.412;2023-04-21T07:34:27;17.88;;;13.20;;
27794;SDS011;15176;50.844;4.412;2023-04-21T07:36:55;17.52;;;13.55;;
27794;SDS011;15176;50.844;4.412;2023-04-21T07:39:20;17.38;;;11.55;;
27794;SDS011;15176;50.844;4.412;2023-04-21T07:41:46;17.20;;;11.90;;
27794;SDS011;15176;50.844;4.412;2023-04-21T07:44:12;16.58;;;12.02;;
27794;SDS011;15176;50.844;4.412;2023-04-21T07:46:38;18.50;;;13.55;;
27794;SDS011;15176;50.844;4.412;2023-04-21T07:49:03;22.30;;;13.88;;
27794;SDS011;15176;50.844;4.412;2023-04-21T07:51:29;15.48;;;11.38;;
27794;SDS011;15176;50.844;4.412;2023-04-21T07:53:55;18.20;;;13.00;;
27794;SDS011;15176;50.844;4.412;2023-04-21T07:56:21;15.57;;;10.23;;
27794;SDS011;15176;50.844;4.412;2023-04-21T07:58:47;17.63;;;12.48;;
27794;SDS011;15176;50.844;4.412;2023-04-21T08:01:13;17.27;;;12.75;;
27794;SDS011;15176;50.844;4.412;2023-04-21T08:03:39;16.52;;;12.18;;
27794;SDS011;15176;50.844;4.412;2023-04-21T08:06:07;16.48;;;11.68;;
27794;SDS011;15176;50.844;4.412;2023-04-21T08:08:33;16.17;;;11.02;;
27794;SDS011;15176;50.844;4.412;2023-04-21T08:11:04;14.43;;;10.13;;
27794;SDS011;15176;50.844;4.412;2023-04-21T08:13:30;15.52;;;10.77;;
27794;SDS011;15176;50.844;4.412;2023-04-21T08:15:58;14.20;;;10.63;;
27794;SDS011;15176;50.844;4.412;2023-04-21T08:18:23;13.77;;;9.82;;
27794;SDS011;15176;50.844;4.412;2023-04-21T08:20:50;13.02;;;9.25;;
27794;SDS011;15176;50.844;4.412;2023-04-21T08:23:16;13.27;;;10.07;;
27794;SDS011;15176;50.844;4.412;2023-04-21T08:25:42;16.67;;;10.63;;
27794;SDS011;15176;50.844;4.412;2023-04-21T08:28:08;14.23;;;10.30;;
27794;SDS011;15176;50.844;4.412;2023-04-21T08:30:34;14.05;;;9.77;;
27794;SDS011;15176;50.844;4.412;2023-04-21T08:32:59;13.55;;;9.50;;
27794;SDS011;15176;50.844;4.412;2023-04-21T08:35:25;13.15;;;9.40;;
27794;SDS011;15176;50.844;4.412;2023-04-21T08:37:51;12.02;;;9.00;;
27794;SDS011;15176;50.844;4.412;2023-04-21T08:40:17;19.67;;;10.15;;
27794;SDS011;15176;50.844;4.412;2023-04-21T08:42:43;13.98;;;10.27;;
27794;SDS011;15176;50.844;4.412;2023-04-21T08:45:16;14.57;;;9.63;;
27794;SDS011;15176;50.844;4.412;2023-04-21T08:47:41;17.45;;;10.07;;
27794;SDS011;15176;50.844;4.412;2023-04-21T08:50:11;13.10;;;8.65;;
27794;SDS011;15176;50.844;4.412;2023-04-21T08:52:37;12.75;;;9.93;;
27794;SDS011;15176;50.844;4.412;2023-04-21T08:55:04;13.65;;;10.65;;
27794;SDS011;15176;50.844;4.412;2023-04-21T08:57:31;14.57;;;10.70;;
27794;SDS011;15176;50.844;4.412;2023-04-21T09:00:00;14.38;;;10.63;;
27794;SDS011;15176;50.844;4.412;2023-04-21T09:02:26;9.13;;;6.15;;
27794;SDS011;15176;50.844;4.412;2023-04-21T09:04:55;15.38;;;10.73;;
27794;SDS011;15176;50.844;4.412;2023-04-21T09:07:30;13.85;;;10.27;;
27794;SDS011;15176;50.844;4.412;2023-04-21T09:10:00;12.98;;;10.10;;
27794;SDS011;15176;50.844;4.412;2023-04-21T09:12:28;13.40;;;10.45;;
27794;SDS011;15176;50.844;4.412;2023-04-21T09:14:55;17.55;;;10.75;;
27794;SDS011;15176;50.844;4.412;2023-04-21T09:17:29;14.27;;;10.38;;
27794;SDS011;15176;50.844;4.412;2023-04-21T09:20:34;13.63;;;9.45;;
27794;SDS011;15176;50.844;4.412;2023-04-21T09:22:56;13.40;;;8.80;;
27794;SDS011;15176;50.844;4.412;2023-04-21T09:25:24;14.13;;;9.57;;
27794;SDS011;15176;50.844;4.412;2023-04-21T09:27:50;11.40;;;8.85;;
27794;SDS011;15176;50.844;4.412;2023-04-21T09:30:18;13.15;;;8.80;;
27794;SDS011;15176;50.844;4.412;2023-04-21T09:32:45;10.88;;;8.43;;
27794;SDS011;15176;50.844;4.412;2023-04-21T09:35:11;12.15;;;9.10;;
27794;SDS011;15176;50.844;4.412;2023-04-21T09:37:43;12.95;;;9.18;;
27794;SDS011;15176;50.844;4.412;2023-04-21T09:40:13;17.20;;;10.70;;
27794;SDS011;15176;50.844;4.412;2023-04-21T09:42:41;12.90;;;9.52;;
27794;SDS011;15176;50.844;4.412;2023-04-21T09:45:09;13.27;;;9.68;;
27794;SDS011;15176;50.844;4.412;2023-04-21T09:47:41;12.95;;;9.00;;
27794;SDS011;15176;50.844;4.412;2023-04-21T09:50:09;13.30;;;9.00;;
27794;SDS011;15176;50.844;4.412;2023-04-21T09:52:36;10.55;;;8.10;;
27794;SDS011;15176;50.844;4.412;2023-04-21T09:55:06;10.68;;;7.97;;
27794;SDS011;15176;50.844;4.412;2023-04-21T09:57:37;10.48;;;7.78;;
27794;SDS011;15176;50.844;4.412;2023-04-21T10:00:06;14.13;;;8.20;;
27794;SDS011;15176;50.844;4.412;2023-04-21T10:02:47;12.38;;;8.77;;
27794;SDS011;15176;50.844;4.412;2023-04-21T10:05:15;13.05;;;8.98;;
27794;SDS011;15176;50.844;4.412;2023-04-21T10:07:42;11.85;;;8.70;;
27794;SDS011;15176;50.844;4.412;2023-04-21T10:10:18;10.00;;;8.00;;
27794;SDS011;15176;50.844;4.412;2023-04-21T10:12:57;12.70;;;9.00;;
27794;SDS011;15176;50.844;4.412;2023-04-21T10:15:30;12.32;;;7.63;;
27794;SDS011;15176;50.844;4.412;2023-04-21T10:18:15;11.38;;;8.18;;
27794;SDS011;15176;50.844;4.412;2023-04-21T10:23:48;12.05;;;8.50;;
27794;SDS011;15176;50.844;4.412;2023-04-21T10:29:28;11.25;;;8.30;;
27794;SDS011;15176;50.844;4.412;2023-04-21T10:31:55;11.98;;;8.18;;
27794;SDS011;15176;50.844;4.412;2023-04-21T10:34:27;10.18;;;7.57;;
27794;SDS011;15176;50.844;4.412;2023-04-21T10:39:28;11.18;;;8.38;;
27794;SDS011;15176;50.844;4.412;2023-04-21T10:44:40;11.43;;;8.43;;
27794;SDS011;15176;50.844;4.412;2023-04-21T10:47:23;17.27;;;9.95;;
27794;SDS011;15176;50.844;4.412;2023-04-21T10:49:54;10.68;;;7.80;;
27794;SDS011;15176;50.844;4.412;2023-04-21T10:52:24;12.00;;;7.88;;
27794;SDS011;15176;50.844;4.412;2023-04-21T10:57:23;10.55;;;7.53;;
27794;SDS011;15176;50.844;4.412;2023-04-21T10:59:49;8.75;;;6.43;;
27794;SDS011;15176;50.844;4.412;2023-04-21T11:02:15;11.70;;;8.27;;
27794;SDS011;15176;50.844;4.412;2023-04-21T11:04:42;8.50;;;5.55;;
27794;SDS011;15176;50.844;4.412;2023-04-21T11:07:15;9.65;;;7.47;;
27794;SDS011;15176;50.844;4.412;2023-04-21T11:09:43;13.00;;;7.22;;
27794;SDS011;15176;50.844;4.412;2023-04-21T11:12:13;11.95;;;8.05;;
27794;SDS011;15176;50.844;4.412;2023-04-21T11:14:42;10.65;;;7.10;;
27794;SDS011;15176;50.844;4.412;2023-04-21T11:17:10;10.20;;;7.63;;
27794;SDS011;15176;50.844;4.412;2023-04-21T11:19:37;10.07;;;6.63;;
27794;SDS011;15176;50.844;4.412;2023-04-21T11:22:04;10.95;;;7.72;;
27794;SDS011;15176;50.844;4.412;2023-04-21T11:24:30;10.52;;;7.35;;
27794;SDS011;15176;50.844;4.412;2023-04-21T11:26:57;11.98;;;8.10;;
27794;SDS011;15176;50.844;4.412;2023-04-21T11:29:29;11.70;;;7.18;;
27794;SDS011;15176;50.844;4.412;2023-04-21T11:31:55;15.32;;;8.07;;
27794;SDS011;15176;50.844;4.412;2023-04-21T11:34:24;13.43;;;8.20;;
27794;SDS011;15176;50.844;4.412;2023-04-21T11:36:51;10.35;;;7.55;;
27794;SDS011;15176;50.844;4.412;2023-04-21T11:39:17;11.60;;;7.75;;
27794;SDS011;15176;50.844;4.412;2023-04-21T11:41:47;11.77;;;8.07;;
27794;SDS011;15176;50.844;4.412;2023-04-21T11:44:29;9.70;;;6.82;;
27794;SDS011;15176;50.844;4.412;2023-04-21T11:47:17;9.48;;;6.97;;
27794;SDS011;15176;50.844;4.412;2023-04-21T11:49:48;12.60;;;6.32;;
27794;SDS011;15176;50.844;4.412;2023-04-21T11:54:55;9.73;;;6.38;;
27794;SDS011;15176;50.844;4.412;2023-04-21T11:57:22;11.95;;;7.10;;
27794;SDS011;15176;50.844;4.412;2023-04-21T11:59:49;10.50;;;6.20;;
27794;SDS011;15176;50.844;4.412;2023-04-21T12:02:37;9.18;;;5.05;;
27794;SDS011;15176;50.844;4.412;2023-04-21T12:07:34;11.60;;;8.18;;
27794;SDS011;15176;50.844;4.412;2023-04-21T12:10:01;11.43;;;7.72;;
27794;SDS011;15176;50.844;4.412;2023-04-21T12:12:38;12.02;;;8.00;;
27794;SDS011;15176;50.844;4.412;2023-04-21T12:15:05;10.98;;;7.57;;
27794;SDS011;15176;50.844;4.412;2023-04-21T12:17:38;10.57;;;7.78;;
27794;SDS011;15176;50.844;4.412;2023-04-21T12:20:08;9.23;;;6.63;;
27794;SDS011;15176;50.844;4.412;2023-04-21T12:22:34;10.50;;;7.18;;
27794;SDS011;15176;50.844;4.412;2023-04-21T12:25:00;11.35;;;6.47;;
27794;SDS011;15176;50.844;4.412;2023-04-21T12:27:26;11.93;;;7.43;;
27794;SDS011;15176;50.844;4.412;2023-04-21T12:29:52;10.20;;;7.07;;
27794;SDS011;15176;50.844;4.412;2023-04-21T12:32:18;10.23;;;6.53;;
27794;SDS011;15176;50.844;4.412;2023-04-21T12:34:44;9.07;;;6.53;;
27794;SDS011;15176;50.844;4.412;2023-04-21T12:37:11;10.30;;;6.88;;
27794;SDS011;15176;50.844;4.412;2023-04-21T12:39:36;8.50;;;5.90;;
27794;SDS011;15176;50.844;4.412;2023-04-21T12:42:02;10.52;;;7.43;;
27794;SDS011;15176;50.844;4.412;2023-04-21T12:44:31;10.73;;;7.22;;
27794;SDS011;15176;50.844;4.412;2023-04-21T12:46:57;11.32;;;6.90;;
27794;SDS011;15176;50.844;4.412;2023-04-21T12:49:24;9.82;;;6.18;;
27794;SDS011;15176;50.844;4.412;2023-04-21T12:51:51;10.52;;;6.97;;
27794;SDS011;15176;50.844;4.412;2023-04-21T12:54:16;11.68;;;7.50;;
27794;SDS011;15176;50.844;4.412;2023-04-21T12:56:42;12.80;;;8.52;;
27794;SDS011;15176;50.844;4.412;2023-04-21T12:59:09;11.35;;;7.88;;
27794;SDS011;15176;50.844;4.412;2023-04-21T13:01:38;10.10;;;7.68;;
27794;SDS011;15176;50.844;4.412;2023-04-21T13:04:06;11.13;;;7.50;;
27794;SDS011;15176;50.844;4.412;2023-04-21T13:06:32;11.38;;;7.47;;
27794;SDS011;15176;50.844;4.412;2023-04-21T13:08:58;10.68;;;7.63;;
27794;SDS011;15176;50.844;4.412;2023-04-21T13:11:24;10.18;;;7.43;;
27794;SDS011;15176;50.844;4.412;2023-04-21T13:13:50;10.68;;;7.60;;
27794;SDS011;15176;50.844;4.412;2023-04-21T13:16:19;12.95;;;7.20;;
27794;SDS011;15176;50.844;4.412;2023-04-21T13:18:44;9.80;;;6.93;;
27794;SDS011;15176;50.844;4.412;2023-04-21T13:21:11;9.15;;;6.18;;
27794;SDS011;15176;50.844;4.412;2023-04-21T13:23:37;10.43;;;6.40;;
27794;SDS011;15176;50.844;4.412;2023-04-21T13:26:03;12.98;;;6.00;;
27794;SDS011;15176;50.844;4.412;2023-04-21T13:28:29;10.45;;;6.95;;
27794;SDS011;15176;50.844;4.412;2023-04-21T13:30:55;11.50;;;7.05;;
27794;SDS011;15176;50.844;4.412;2023-04-21T13:33:21;10.30;;;7.00;;
27794;SDS011;15176;50.844;4.412;2023-04-21T13:35:47;9.88;;;6.57;;
27794;SDS011;15176;50.844;4.412;2023-04-21T13:38:13;10.82;;;6.60;;
27794;SDS011;15176;50.844;4.412;2023-04-21T13:40:40;10.00;;;6.13;;
27794;SDS011;15176;50.844;4.412;2023-04-21T13:43:07;10.57;;;6.85;;
27794;SDS011;15176;50.844;4.412;2023-04-21T13:45:33;10.23;;;6.82;;
27794;SDS011;15176;50.844;4.412;2023-04-21T13:47:58;9.60;;;6.35;;
27794;SDS011;15176;50.844;4.412;2023-04-21T13:50:25;9.73;;;5.65;;
27794;SDS011;15176;50.844;4.412;2023-04-21T13:52:50;9.38;;;5.78;;
27794;SDS011;15176;50.844;4.412;2023-04-21T13:55:16;8.25;;;5.63;;
27794;SDS011;15176;50.844;4.412;2023-04-21T13:57:42;8.82;;;5.07;;
27794;SDS011;15176;50.844;4.412;2023-04-21T14:00:08;11.27;;;5.72;;
27794;SDS011;15176;50.844;4.412;2023-04-21T14:02:35;8.10;;;5.30;;
27794;SDS011;15176;50.844;4.412;2023-04-21T14:05:01;9.60;;;5.70;;
27794;SDS011;15176;50.844;4.412;2023-04-21T14:07:27;8.95;;;5.03;;
27794;SDS011;15176;50.844;4.412;2023-04-21T14:09:53;7.38;;;5.03;;
27794;SDS011;15176;50.844;4.412;2023-04-21T14:12:19;8.02;;;4.57;;
27794;SDS011;15176;50.844;4.412;2023-04-21T14:14:45;7.05;;;4.43;;
27794;SDS011;15176;50.844;4.412;2023-04-21T14:17:11;9.40;;;5.10;;
27794;SDS011;15176;50.844;4.412;2023-04-21T14:19:37;7.93;;;4.68;;
27794;SDS011;15176;50.844;4.412;2023-04-21T14:22:03;7.53;;;4.88;;
27794;SDS011;15176;50.844;4.412;2023-04-21T14:24:29;9.25;;;5.60;;
27794;SDS011;15176;50.844;4.412;2023-04-21T14:26:56;12.20;;;5.43;;
27794;SDS011;15176;50.844;4.412;2023-04-21T14:29:25;11.93;;;5.95;;
27794;SDS011;15176;50.844;4.412;2023-04-21T14:31:50;7.63;;;5.10;;
27794;SDS011;15176;50.844;4.412;2023-04-21T14:34:18;8.82;;;5.63;;
27794;SDS011;15176;50.844;4.412;2023-04-21T14:36:45;12.50;;;5.93;;
27794;SDS011;15176;50.844;4.412;2023-04-21T14:39:13;10.98;;;5.90;;
27794;SDS011;15176;50.844;4.412;2023-04-21T14:41:39;10.55;;;5.07;;
27794;SDS011;15176;50.844;4.412;2023-04-21T14:44:06;8.20;;;5.05;;
27794;SDS011;15176;50.844;4.412;2023-04-21T14:46:34;8.18;;;5.40;;